RAIN

Not for real navigation. The accuracy of this data is not assured See disclaimer for more information



ICAO NAME COUNTRY WIND Kt GUST Kt VIS m TEMP/DEW C BARO METAR
OIKO 4 0 200 19/18 29.98 OIKO 170800Z 33004KT 0200 +TSRA SCT015 BKN030CB BKN080 19/18 Q1015 A2998 RESHRA
WSAP Singapore / Paya Lebar Singapore 7 0 1000 28/26 29.80 WSAP 170900Z 25007KT 1000 +TSRA FEW008 FEW015CB SCT016TCU 28/26 Q1009
KCWI Clinton, Clinton Municipal Air IA United States 10 0 1200 -4/-6 29.91 KCWI 170913Z AUTO 09010KT 0.75SM -SN BR OVC006 M04/M06 A2991 RMK AO2 CIG 004V008 P0000 FZRANO
SBSL Sao Luiz Aeroporto Brazil 14 0 1500 24/24 29.85 SBSL 170907Z 03014KT 1500 RA BKN010 24/24 Q1011
KCXO LONE STAR EXECUTIVE AIRPORT TX United States 5 0 1600 17/17 29.63 KCXO 170853Z AUTO 18005KT 1SM BR OVC002 17/17 A2963 RMK AO2 RAB21E30 SLP032 P0000 60000 T01720172 58

Show more